Tesuque Pueblo, New Mexico
Current Conditions -  °F | °C
As of 3:53 PM on Tuesday 27 Jan 2015 (Local Time) from KSAF Reporting Station
Clear Clear  
Wind Chill: 58°   Ceiling: Unl
Heat Index: 58°   Visibility: 10mi
Dew Point: 27°   Wind: 10mph
Humidity: 31%   Direction: 250°WSW
Pressure: 30.25"   Gusts: NA
Location:  35.7017°N, 105.921°W
Report Text: KSAF 272253Z 25009KT 10SM CLR 14/M03 A3025 RMK AO2 SLP199 T01441028
Loading
Personal Weather Stations






























Interactive Weather Map New forecast layout! Learn more

10-Day Weather Forecast

Advertisements
Track Severe Weather on mobile